Time;durP1;ratioP1;P1;durP2;ratioP2;P2;SDS_P1;SDS_P2;PMS_P1;PMS_P2;Temp;Humidity;BMP_temperature;BMP_pressure;BME280_temperature;BME280_humidity;BME280_pressure;Samples;Min_cycle;Max_cycle;Signal;HPM_P1;HPM_P2
2024/01/28 00:01:47;;;;;;;0.50;0.10;;;4.20;69.00;;;;;;5073743;28;20465;-74
2024/01/28 00:04:14;;;;;;;0.50;0.20;;;4.10;67.20;;;;;;5074357;28;20446;-73
2024/01/28 00:06:44;;;;;;;0.50;0.10;;;4.00;67.30;;;;;;5074498;28;20464;-75
2024/01/28 00:09:12;;;;;;;0.50;0.10;;;3.90;66.80;;;;;;5074375;28;20451;-74
2024/01/28 00:11:42;;;;;;;0.50;0.10;;;3.90;68.10;;;;;;5082950;28;20437;-74
2024/01/28 00:14:10;;;;;;;1.07;0.87;;;3.80;69.30;;;;;;5074123;28;20445;-73
2024/01/28 00:16:38;;;;;;;0.50;0.10;;;3.70;70.60;;;;;;5073726;28;20571;-74
2024/01/28 00:19:08;;;;;;;0.50;0.10;;;3.80;73.10;;;;;;5074802;28;20450;-74
2024/01/28 00:21:36;;;;;;;0.50;0.10;;;3.90;74.30;;;;;;5074471;28;20446;-74
2024/01/28 00:24:06;;;;;;;0.50;0.10;;;3.90;73.80;;;;;;5074753;28;20437;-74
2024/01/28 00:26:38;;;;;;;0.50;0.10;;;3.90;73.60;;;;;;5074678;28;20526;-74
2024/01/28 00:29:06;;;;;;;0.50;0.10;;;3.90;73.60;;;;;;5074474;28;20556;-75
2024/01/28 00:31:34;;;;;;;0.50;0.10;;;3.80;73.20;;;;;;5090527;28;20531;-75
2024/01/28 00:34:02;;;;;;;0.50;0.10;;;3.80;72.00;;;;;;5089726;28;20453;-74
2024/01/28 00:36:32;;;;;;;0.50;0.10;;;3.70;72.30;;;;;;5087518;28;20488;-73
2024/01/28 00:38:59;;;;;;;0.50;0.10;;;3.70;73.50;;;;;;5085210;28;20443;-72
2024/01/28 00:41:29;;;;;;;0.50;0.10;;;3.70;74.90;;;;;;5082691;28;20513;-72
2024/01/28 00:43:58;;;;;;;0.50;0.10;;;3.70;76.10;;;;;;5094484;28;20475;-74
2024/01/28 00:46:26;;;;;;;0.50;0.10;;;3.60;77.00;;;;;;5083441;28;21050;-74
2024/01/28 00:48:54;;;;;;;0.50;0.10;;;3.60;77.70;;;;;;5079117;28;20513;-74
2024/01/28 00:51:22;;;;;;;0.50;0.20;;;3.60;78.50;;;;;;5077344;28;20924;-72
2024/01/28 00:53:50;;;;;;;0.50;0.10;;;3.60;79.40;;;;;;5085814;28;20482;-73
2024/01/28 00:56:18;;;;;;;0.50;0.10;;;3.70;80.70;;;;;;5077746;28;20485;-72
2024/01/28 00:58:47;;;;;;;0.50;0.10;;;3.70;80.00;;;;;;5086488;28;20517;-74
2024/01/28 01:01:16;;;;;;;0.50;0.10;;;3.60;79.70;;;;;;5078824;28;20441;-72
2024/01/28 01:03:44;;;;;;;0.50;0.10;;;3.60;81.70;;;;;;5091395;28;20445;-72
2024/01/28 01:06:12;;;;;;;0.50;0.10;;;3.60;80.50;;;;;;5082706;28;20464;-72
2024/01/28 01:08:39;;;;;;;0.97;0.97;;;3.60;80.60;;;;;;5082280;28;20448;-73
2024/01/28 01:11:07;;;;;;;0.50;0.10;;;3.60;81.50;;;;;;5089598;28;20441;-73
2024/01/28 01:13:35;;;;;;;0.50;0.30;;;3.60;81.00;;;;;;5077390;28;20445;-74
2024/01/28 01:16:05;;;;;;;0.50;0.10;;;3.60;81.90;;;;;;5094127;28;20503;-72
2024/01/28 01:18:33;;;;;;;0.50;0.10;;;3.70;82.00;;;;;;5085783;28;20485;-73
2024/01/28 01:21:01;;;;;;;0.50;0.10;;;3.70;80.00;;;;;;5084761;28;20484;-73
2024/01/28 01:23:30;;;;;;;0.50;0.10;;;3.70;79.40;;;;;;5083992;28;20444;-73
2024/01/28 01:25:58;;;;;;;0.50;0.10;;;;;;;;;;5076990;28;20446;-75
2024/01/28 01:28:31;;;;;;;0.50;0.10;;;3.70;77.00;;;;;;5082772;28;20437;-75
2024/01/28 01:31:00;;;;;;;0.50;0.10;;;3.80;76.40;;;;;;5072793;28;20437;-74
2024/01/28 01:33:29;;;;;;;0.50;0.10;;;3.70;74.60;;;;;;5073569;28;20811;-73
2024/01/28 01:35:57;;;;;;;0.50;0.10;;;3.70;75.50;;;;;;5086890;28;20461;-74
2024/01/28 01:38:25;;;;;;;1.13;1.13;;;3.60;75.00;;;;;;5083239;28;20950;-74
2024/01/28 01:40:53;;;;;;;0.50;0.10;;;3.60;74.90;;;;;;5076284;28;20452;-72
2024/01/28 01:43:21;;;;;;;0.50;0.10;;;3.60;76.20;;;;;;5075789;28;20441;-73
2024/01/28 01:45:50;;;;;;;0.50;0.10;;;3.60;76.80;;;;;;5076630;28;20448;-73
2024/01/28 01:48:18;;;;;;;0.50;0.10;;;3.60;76.70;;;;;;5076187;28;20472;-72
2024/01/28 01:50:47;;;;;;;0.50;0.20;;;3.60;75.70;;;;;;5080435;28;20465;-74
2024/01/28 01:53:16;;;;;;;0.50;0.10;;;3.60;76.20;;;;;;5072621;28;20511;-73
2024/01/28 01:55:44;;;;;;;0.50;0.10;;;3.60;76.70;;;;;;5080401;28;20440;-74
2024/01/28 01:58:13;;;;;;;0.50;0.10;;;3.60;75.20;;;;;;5071943;28;20556;-73
2024/01/28 02:00:41;;;;;;;0.50;0.27;;;3.60;75.70;;;;;;5072472;28;20453;-73
2024/01/28 02:03:09;;;;;;;0.60;0.30;;;3.60;74.10;;;;;;5072987;28;20536;-73
2024/01/28 02:05:37;;;;;;;0.80;0.73;;;3.50;71.60;;;;;;5081201;28;20533;-72
2024/01/28 02:08:07;;;;;;;0.50;0.10;;;3.50;71.20;;;;;;5072300;28;20542;-74
2024/01/28 02:10:35;;;;;;;0.50;0.10;;;3.40;71.70;;;;;;5088629;28;20478;-73
2024/01/28 02:13:03;;;;;;;0.60;0.50;;;3.30;73.10;;;;;;5072735;28;20525;-73
2024/01/28 02:15:37;;;;;;;0.50;0.23;;;3.30;74.00;;;;;;5080390;28;20451;-73
2024/01/28 02:18:06;;;;;;;0.50;0.10;;;3.20;75.50;;;;;;5080036;28;20487;-73
2024/01/28 02:20:34;;;;;;;0.80;0.40;;;3.20;76.40;;;;;;5071929;28;20606;-73
2024/01/28 02:23:06;;;;;;;0.50;0.10;;;3.20;78.50;;;;;;5074944;28;20787;-74
2024/01/28 02:25:35;;;;;;;0.50;0.10;;;3.10;78.20;;;;;;5082136;28;20437;-73
2024/01/28 02:28:03;;;;;;;0.50;0.10;;;3.10;80.80;;;;;;5077826;28;21030;-73
2024/01/28 02:30:33;;;;;;;0.50;0.10;;;3.10;81.70;;;;;;5081319;28;20437;-73
2024/01/28 02:33:00;;;;;;;0.50;0.10;;;3.10;82.90;;;;;;5084343;28;20913;-72
2024/01/28 02:35:29;;;;;;;0.50;0.30;;;3.20;83.90;;;;;;5075722;28;20921;-73
2024/01/28 02:37:56;;;;;;;0.50;0.10;;;3.10;82.30;;;;;;5084033;28;20487;-73
2024/01/28 02:40:24;;;;;;;0.60;0.40;;;3.00;82.20;;;;;;5081847;28;20436;-75
2024/01/28 02:42:54;;;;;;;0.50;0.10;;;3.00;83.40;;;;;;5092114;28;20437;-74
2024/01/28 02:45:23;;;;;;;2.07;1.80;;;3.00;86.20;;;;;;5084123;28;20464;-73
2024/01/28 02:47:51;;;;;;;0.50;0.10;;;;;;;;;;5075581;28;20457;-73
2024/01/28 02:50:19;;;;;;;0.50;0.10;;;3.00;86.70;;;;;;5075773;28;20438;-74
2024/01/28 02:52:50;;;;;;;0.50;0.10;;;3.00;88.20;;;;;;5083922;28;20530;-74
2024/01/28 02:55:18;;;;;;;0.50;0.10;;;3.00;89.20;;;;;;5079279;28;20468;-74
2024/01/28 02:57:47;;;;;;;0.50;0.10;;;3.00;90.80;;;;;;5078842;28;20489;-75
2024/01/28 03:00:17;;;;;;;0.50;0.10;;;3.00;90.30;;;;;;5074369;28;20479;-75
2024/01/28 03:02:45;;;;;;;0.50;0.10;;;3.10;91.00;;;;;;5075417;28;20445;-75
2024/01/28 03:05:13;;;;;;;0.50;0.10;;;3.10;90.90;;;;;;5075856;28;20495;-75
2024/01/28 03:07:41;;;;;;;0.50;0.10;;;3.10;90.10;;;;;;5076964;28;20461;-75
2024/01/28 03:10:09;;;;;;;0.50;0.10;;;3.10;95.40;;;;;;5076661;28;20482;-75
2024/01/28 03:12:38;;;;;;;0.50;0.10;;;3.10;87.90;;;;;;5075765;28;20445;-75
2024/01/28 03:15:07;;;;;;;0.50;0.10;;;3.10;87.50;;;;;;5075664;28;20448;-76
2024/01/28 03:17:37;;;;;;;0.50;0.10;;;3.10;87.50;;;;;;5074556;28;20484;-76
2024/01/28 03:20:06;;;;;;;0.50;0.10;;;3.00;86.40;;;;;;5075203;28;21138;-76
2024/01/28 03:22:33;;;;;;;0.50;0.10;;;3.00;86.20;;;;;;5075132;28;20471;-74
2024/01/28 03:25:01;;;;;;;0.50;0.10;;;2.90;86.40;;;;;;5074964;28;20455;-75
2024/01/28 03:27:29;;;;;;;0.50;0.10;;;2.90;86.90;;;;;;5075131;28;20472;-72
2024/01/28 03:29:57;;;;;;;0.50;0.10;;;2.80;87.50;;;;;;5075261;28;20449;-75
2024/01/28 03:32:25;;;;;;;0.50;0.10;;;2.80;89.90;;;;;;5074299;28;20464;-74
2024/01/28 03:34:54;;;;;;;0.50;0.10;;;2.80;90.50;;;;;;5075480;28;20480;-74
2024/01/28 03:37:22;;;;;;;0.50;0.10;;;2.80;91.20;;;;;;5082770;28;20462;-75
2024/01/28 03:39:50;;;;;;;0.50;0.10;;;2.80;90.90;;;;;;5095710;28;20476;-73
2024/01/28 03:42:18;;;;;;;0.50;0.10;;;2.80;90.90;;;;;;5095747;28;20440;-74
2024/01/28 03:44:46;;;;;;;0.50;0.20;;;2.70;91.20;;;;;;5095128;28;20452;-74
2024/01/28 03:47:14;;;;;;;0.50;0.10;;;2.70;91.30;;;;;;5095247;28;20456;-75
2024/01/28 03:49:42;;;;;;;0.50;0.10;;;2.70;91.70;;;;;;5084414;28;20460;-74
2024/01/28 03:52:11;;;;;;;0.50;0.10;;;2.70;92.00;;;;;;5074640;28;20453;-73
2024/01/28 03:54:39;;;;;;;0.50;0.10;;;2.70;92.80;;;;;;5072918;28;20974;-73
2024/01/28 03:57:07;;;;;;;0.50;0.10;;;2.70;92.90;;;;;;5072426;28;20880;-74
2024/01/28 03:59:39;;;;;;;0.50;0.10;;;2.70;93.30;;;;;;5073285;28;20494;-73
2024/01/28 04:02:08;;;;;;;4.30;3.90;;;2.70;93.70;;;;;;5072824;28;20780;-74
2024/01/28 04:04:36;;;;;;;0.50;0.10;;;2.70;94.40;;;;;;5072920;28;20933;-74
2024/01/28 04:07:04;;;;;;;0.50;0.10;;;2.70;94.60;;;;;;5073296;28;20476;-72
2024/01/28 04:09:33;;;;;;;0.50;0.10;;;2.70;94.70;;;;;;5076398;28;20438;-73
2024/01/28 04:12:01;;;;;;;0.50;0.10;;;2.70;94.80;;;;;;5076934;28;20451;-74
2024/01/28 04:14:29;;;;;;;0.50;0.10;;;2.60;95.30;;;;;;5078227;28;20445;-72
2024/01/28 04:16:57;;;;;;;0.50;0.10;;;2.60;96.30;;;;;;5079438;28;20466;-73
2024/01/28 04:19:25;;;;;;;0.50;0.10;;;2.60;97.20;;;;;;5083512;28;20552;-74
2024/01/28 04:21:53;;;;;;;0.50;0.10;;;2.60;97.80;;;;;;5083634;28;20448;-74
2024/01/28 04:24:21;;;;;;;0.50;0.10;;;2.60;97.20;;;;;;5083468;28;20487;-74
2024/01/28 04:26:52;;;;;;;0.50;0.10;;;2.60;97.60;;;;;;5084086;28;20461;-75
2024/01/28 04:29:20;;;;;;;0.50;0.10;;;2.60;97.50;;;;;;5083027;28;20445;-72
2024/01/28 04:31:48;;;;;;;0.50;0.10;;;2.60;97.90;;;;;;5083567;28;20827;-73
2024/01/28 04:34:16;;;;;;;0.50;0.10;;;2.70;98.30;;;;;;5083399;28;20441;-73
2024/01/28 04:36:44;;;;;;;0.60;0.30;;;2.70;98.10;;;;;;5083440;28;20461;-75
2024/01/28 04:39:12;;;;;;;0.50;0.10;;;2.70;98.10;;;;;;5082924;28;20481;-72
2024/01/28 04:41:40;;;;;;;0.50;0.10;;;2.70;97.60;;;;;;5082392;28;20520;-74
2024/01/28 04:44:09;;;;;;;0.50;0.10;;;2.70;97.50;;;;;;5073920;28;20528;-76
2024/01/28 04:46:37;;;;;;;0.50;0.10;;;2.70;97.80;;;;;;5073767;28;20526;-73
2024/01/28 04:49:05;;;;;;;0.50;0.10;;;2.70;97.70;;;;;;5073780;28;20794;-73
2024/01/28 04:51:33;;;;;;;0.50;0.10;;;2.70;97.50;;;;;;5072998;28;20449;-74
2024/01/28 04:54:01;;;;;;;0.50;0.10;;;2.60;98.00;;;;;;5073343;28;20441;-74
2024/01/28 04:56:29;;;;;;;0.50;0.10;;;5.40;99.90;;;;;;5073141;28;21028;-74
2024/01/28 04:58:57;;;;;;;0.50;0.17;;;2.70;98.40;;;;;;5072641;28;20852;-74
2024/01/28 05:01:26;;;;;;;0.50;0.10;;;2.70;98.40;;;;;;5073589;28;20548;-76
2024/01/28 05:03:54;;;;;;;0.50;0.20;;;2.70;98.10;;;;;;5073859;28;20491;-76
2024/01/28 05:06:22;;;;;;;0.50;0.10;;;2.70;97.70;;;;;;5073248;28;20468;-75
2024/01/28 05:08:50;;;;;;;0.50;0.10;;;2.70;98.10;;;;;;5073064;28;20442;-74
2024/01/28 05:11:18;;;;;;;0.50;0.10;;;2.80;98.20;;;;;;5072729;28;20994;-74
2024/01/28 05:13:46;;;;;;;0.50;0.10;;;2.70;98.00;;;;;;5071911;28;20505;-74
2024/01/28 05:16:14;;;;;;;0.50;0.10;;;2.70;98.30;;;;;;5071922;28;20532;-74
2024/01/28 05:18:43;;;;;;;0.50;0.10;;;2.70;98.60;;;;;;5090477;28;20616;-73
2024/01/28 05:21:11;;;;;;;0.50;0.10;;;2.70;99.00;;;;;;5092304;28;20476;-73
2024/01/28 05:23:39;;;;;;;0.50;0.10;;;2.70;98.50;;;;;;5083155;28;20445;-74
2024/01/28 05:26:07;;;;;;;0.50;0.10;;;2.70;98.00;;;;;;5072339;28;20517;-74
2024/01/28 05:28:35;;;;;;;4.77;4.43;;;2.70;98.00;;;;;;5072623;28;20473;-74
2024/01/28 05:31:03;;;;;;;0.50;0.10;;;2.70;97.80;;;;;;5075887;28;20452;-74
2024/01/28 05:33:34;;;;;;;0.50;0.10;;;2.80;97.90;;;;;;5094567;28;20524;-74
2024/01/28 05:36:03;;;;;;;0.60;0.40;;;2.70;96.70;;;;;;5097190;28;20436;-73
2024/01/28 05:38:31;;;;;;;0.50;0.20;;;2.70;97.10;;;;;;5095006;28;20502;-74
2024/01/28 05:40:59;;;;;;;0.50;0.10;;;2.60;96.30;;;;;;5092443;28;20464;-74
2024/01/28 05:43:27;;;;;;;0.50;0.10;;;2.60;96.70;;;;;;5092074;28;20531;-74
2024/01/28 05:45:54;;;;;;;0.50;0.10;;;2.50;96.80;;;;;;5092441;28;20494;-75
2024/01/28 05:48:22;;;;;;;0.50;0.10;;;2.50;97.50;;;;;;5082594;28;20530;-74
2024/01/28 05:50:51;;;;;;;0.50;0.10;;;2.50;98.10;;;;;;5072404;28;20464;-73
2024/01/28 05:53:20;;;;;;;0.50;0.10;;;2.60;98.10;;;;;;5072258;28;20559;-74
2024/01/28 05:55:48;;;;;;;0.50;0.10;;;2.50;98.00;;;;;;5072248;28;20530;-72
2024/01/28 05:58:16;;;;;;;0.50;0.10;;;2.50;98.10;;;;;;5071729;28;20493;-74
2024/01/28 06:00:44;;;;;;;0.50;0.10;;;2.60;98.50;;;;;;5071731;28;21137;-74
2024/01/28 06:03:12;;;;;;;0.50;0.10;;;2.60;98.40;;;;;;5071010;28;20496;-73
2024/01/28 06:05:40;;;;;;;0.50;0.10;;;2.70;98.80;;;;;;5071683;28;20449;-74
2024/01/28 06:08:08;;;;;;;3.03;1.37;;;2.70;98.30;;;;;;5071812;28;20457;-74
2024/01/28 06:10:37;;;;;;;0.50;0.10;;;2.70;97.40;;;;;;5071510;28;20869;-73
2024/01/28 06:13:05;;;;;;;1.33;1.23;;;2.70;97.40;;;;;;5076228;28;20472;-74
2024/01/28 06:15:33;;;;;;;0.50;0.10;;;2.70;96.40;;;;;;5076129;28;20453;-76
2024/01/28 06:18:02;;;;;;;0.50;0.10;;;2.70;95.60;;;;;;5071954;28;20458;-75
2024/01/28 06:20:35;;;;;;;0.50;0.10;;;;;;;;;;5071706;28;20485;-76
2024/01/28 06:23:03;;;;;;;0.50;0.20;;;2.70;95.20;;;;;;5071540;28;20532;-75
2024/01/28 06:25:31;;;;;;;4.10;3.70;;;2.60;94.10;;;;;;5071042;28;20498;-74
2024/01/28 06:28:00;;;;;;;0.50;0.10;;;2.60;93.80;;;;;;5069834;28;20556;-74
2024/01/28 06:30:29;;;;;;;1.27;1.17;;;2.50;93.60;;;;;;5070924;28;20437;-74
2024/01/28 06:32:57;;;;;;;0.50;0.10;;;2.40;94.10;;;;;;5071269;28;20437;-72
2024/01/28 06:35:25;;;;;;;0.50;0.10;;;2.40;94.70;;;;;;5071027;28;20460;-73
2024/01/28 06:37:52;;;;;;;0.50;0.10;;;2.40;95.90;;;;;;5073398;28;20496;-73
2024/01/28 06:40:20;;;;;;;0.50;0.10;;;2.40;97.00;;;;;;5074471;28;20568;-74
2024/01/28 06:42:48;;;;;;;0.50;0.20;;;2.50;97.70;;;;;;5075197;28;20996;-74
2024/01/28 06:45:19;;;;;;;0.50;0.10;;;2.50;98.20;;;;;;5081823;28;20510;-75
2024/01/28 06:47:47;;;;;;;0.50;0.10;;;2.50;98.70;;;;;;5074977;28;20556;-74
2024/01/28 06:50:15;;;;;;;1.53;1.43;;;2.40;98.50;;;;;;5074088;28;21080;-75
2024/01/28 06:52:43;;;;;;;0.50;0.10;;;2.40;98.90;;;;;;5072658;28;20811;-75
2024/01/28 06:55:11;;;;;;;0.50;0.10;;;2.30;99.70;;;;;;5071560;28;20441;-74
2024/01/28 06:57:39;;;;;;;0.50;0.30;;;2.30;99.90;;;;;;5071315;28;20477;-74
2024/01/28 07:00:10;;;;;;;0.50;0.20;;;2.40;99.90;;;;;;5069783;28;20576;-74
2024/01/28 07:02:40;;;;;;;0.50;0.10;;;2.50;99.90;;;;;;5076716;28;20449;-73
2024/01/28 07:05:09;;;;;;;0.50;0.10;;;2.50;99.90;;;;;;5070500;28;20456;-75
2024/01/28 07:07:37;;;;;;;0.50;0.10;;;2.60;99.90;;;;;;5070614;28;20881;-74
2024/01/28 07:10:05;;;;;;;0.50;0.10;;;2.60;99.90;;;;;;5078765;28;20906;-74
2024/01/28 07:12:33;;;;;;;0.50;0.10;;;2.50;99.90;;;;;;5079702;28;20478;-74
2024/01/28 07:15:01;;;;;;;2.60;2.50;;;2.50;99.90;;;;;;5074942;28;20445;-74
2024/01/28 07:17:29;;;;;;;0.50;0.10;;;2.60;99.90;;;;;;5070263;28;20559;-74
2024/01/28 07:19:58;;;;;;;0.50;0.10;;;2.70;99.90;;;;;;5070798;28;20477;-75
2024/01/28 07:22:26;;;;;;;0.50;0.20;;;2.70;99.90;;;;;;5070699;28;20441;-75
2024/01/28 07:24:54;;;;;;;0.50;0.10;;;2.80;99.90;;;;;;5070048;28;21035;-74
2024/01/28 07:27:22;;;;;;;0.50;0.10;;;2.80;99.90;;;;;;5070931;28;20468;-74
2024/01/28 07:29:50;;;;;;;0.50;0.10;;;2.70;99.90;;;;;;5080107;28;20441;-73
2024/01/28 07:32:18;;;;;;;0.50;0.10;;;2.70;99.90;;;;;;5087213;28;20855;-74
2024/01/28 07:34:46;;;;;;;0.50;0.10;;;2.70;99.90;;;;;;5093980;28;20441;-74
2024/01/28 07:37:16;;;;;;;0.50;0.10;;;2.70;99.90;;;;;;5102267;28;20468;-73
2024/01/28 07:39:43;;;;;;;0.50;0.10;;;2.70;99.90;;;;;;5101165;28;20531;-76
2024/01/28 07:42:11;;;;;;;0.50;0.10;;;2.70;99.90;;;;;;5084714;28;20512;-74
2024/01/28 07:44:39;;;;;;;4.73;4.43;;;2.70;99.90;;;;;;5083036;28;20452;-76
2024/01/28 07:47:07;;;;;;;0.50;0.20;;;2.70;99.90;;;;;;5094802;28;20964;-74
2024/01/28 07:49:35;;;;;;;0.50;0.10;;;2.70;99.90;;;;;;5087680;28;20453;-76
2024/01/28 07:52:03;;;;;;;0.50;0.10;;;2.70;99.90;;;;;;5087506;28;20437;-75
2024/01/28 07:54:32;;;;;;;0.50;0.10;;;2.60;99.90;;;;;;5085563;28;20441;-75
2024/01/28 07:57:02;;;;;;;0.50;0.10;;;2.60;99.90;;;;;;5082045;28;20510;-77
2024/01/28 07:59:30;;;;;;;0.50;0.10;;;2.60;99.90;;;;;;5086898;28;20485;-76
2024/01/28 08:01:58;;;;;;;0.50;0.10;;;2.60;99.90;;;;;;5094836;28;20571;-77
2024/01/28 08:04:28;;;;;;;0.50;0.20;;;2.60;99.90;;;;;;5094833;28;20944;-76
2024/01/28 08:06:56;;;;;;;0.50;0.10;;;2.70;99.90;;;;;;5095820;28;20464;-76
2024/01/28 08:09:24;;;;;;;0.50;0.10;;;2.60;99.90;;;;;;5096836;28;20447;-77
2024/01/28 08:11:53;;;;;;;0.50;0.10;;;2.70;99.90;;;;;;5096806;28;20914;-77
2024/01/28 08:14:26;;;;;;;0.50;0.10;;;2.70;99.90;;;;;;5079666;28;20442;-73
2024/01/28 08:16:54;;;;;;;0.50;0.10;;;2.70;99.90;;;;;;5091391;28;20479;-75
2024/01/28 08:19:22;;;;;;;0.50;0.10;;;2.70;99.90;;;;;;5078833;28;20788;-75
2024/01/28 08:21:50;;;;;;;0.50;0.10;;;2.80;99.90;;;;;;5078514;28;20564;-75
2024/01/28 08:24:18;;;;;;;0.50;0.10;;;2.90;99.90;;;;;;5075763;28;20441;-72
2024/01/28 08:26:46;;;;;;;0.50;0.10;;;;;;;;;;5072107;28;20469;-75
2024/01/28 08:29:16;;;;;;;0.50;0.10;;;2.90;99.90;;;;;;5075284;28;20541;-77
2024/01/28 08:31:43;;;;;;;0.50;0.10;;;2.90;99.90;;;;;;5076412;28;20952;-75
2024/01/28 08:34:11;;;;;;;0.50;0.20;;;3.00;99.90;;;;;;5088998;28;20430;-74
2024/01/28 08:36:40;;;;;;;0.50;0.10;;;3.00;99.90;;;;;;5078580;28;20483;-76
2024/01/28 08:39:09;;;;;;;0.50;0.10;;;3.10;99.90;;;;;;5076561;28;20429;-76
2024/01/28 08:41:38;;;;;;;0.50;0.10;;;3.20;99.90;;;;;;5089379;28;20492;-73
2024/01/28 08:44:06;;;;;;;0.70;0.30;;;3.20;99.90;;;;;;5075549;28;20437;-75
2024/01/28 08:46:40;;;;;;;0.50;0.10;;;3.20;99.90;;;;;;5080752;28;20533;-75
2024/01/28 08:49:08;;;;;;;0.50;0.10;;;3.30;99.70;;;;;;5078271;28;20495;-73
2024/01/28 08:51:36;;;;;;;0.50;0.10;;;3.30;98.10;;;;;;5081196;28;20801;-74
2024/01/28 08:54:05;;;;;;;0.50;0.10;;;3.40;98.00;;;;;;5075283;28;20945;-73
2024/01/28 08:56:33;;;;;;;0.50;0.10;;;3.40;97.40;;;;;;5078175;28;20460;-75
2024/01/28 08:59:01;;;;;;;0.50;0.10;;;3.50;97.70;;;;;;5085551;28;20880;-75
2024/01/28 09:01:29;;;;;;;0.50;0.10;;;3.50;97.50;;;;;;5087284;28;20591;-76
2024/01/28 09:03:58;;;;;;;0.50;0.10;;;3.60;96.80;;;;;;5076608;28;20532;-75
2024/01/28 09:06:26;;;;;;;0.50;0.10;;;3.60;95.20;;;;;;5082697;28;20455;-74
2024/01/28 09:08:54;;;;;;;0.50;0.10;;;3.60;93.60;;;;;;5074015;28;20450;-74
2024/01/28 09:11:22;;;;;;;0.50;0.10;;;3.60;93.70;;;;;;5073628;28;20528;-74
2024/01/28 09:13:50;;;;;;;0.50;0.10;;;3.70;94.40;;;;;;5071698;28;20568;-75
2024/01/28 09:16:18;;;;;;;0.50;0.10;;;3.80;93.50;;;;;;5074211;28;20446;-74
2024/01/28 09:18:46;;;;;;;0.50;0.10;;;3.80;92.20;;;;;;5075320;28;20499;-74
2024/01/28 09:21:15;;;;;;;0.50;0.20;;;;;;;;;;5074216;28;20477;-74
2024/01/28 09:23:43;;;;;;;0.50;0.10;;;3.80;90.50;;;;;;5079460;28;20491;-76
2024/01/28 09:26:11;;;;;;;0.50;0.10;;;3.90;89.90;;;;;;5075601;28;20465;-75
2024/01/28 09:28:40;;;;;;;0.50;0.10;;;3.90;89.60;;;;;;5077920;28;20936;-75
2024/01/28 09:31:08;;;;;;;0.50;0.10;;;3.90;89.70;;;;;;5073618;28;20445;-74
2024/01/28 09:33:36;;;;;;;0.50;0.10;;;4.00;89.90;;;;;;5072181;28;20437;-74
2024/01/28 09:36:04;;;;;;;0.90;0.90;;;4.10;88.50;;;;;;5072336;28;20472;-73
2024/01/28 09:38:33;;;;;;;0.50;0.10;;;4.10;85.70;;;;;;5073263;28;20437;-74
2024/01/28 09:41:09;;;;;;;0.50;0.10;;;4.20;85.50;;;;;;5073918;28;20445;-75
2024/01/28 09:43:39;;;;;;;11.17;10.33;;;4.30;85.00;;;;;;5075411;28;20528;-76
2024/01/28 09:46:08;;;;;;;0.50;0.10;;;4.40;86.30;;;;;;5074327;28;20472;-74
2024/01/28 09:48:36;;;;;;;0.50;0.10;;;4.50;85.40;;;;;;5073980;28;20533;-74
2024/01/28 09:51:05;;;;;;;0.50;0.10;;;4.60;84.60;;;;;;5073324;28;20450;-76
2024/01/28 09:53:34;;;;;;;0.50;0.10;;;4.70;83.70;;;;;;5074468;28;20434;-75
2024/01/28 09:56:02;;;;;;;0.50;0.13;;;4.70;81.70;;;;;;5075067;28;20457;-77
2024/01/28 09:58:30;;;;;;;0.50;0.10;;;4.80;80.00;;;;;;5073283;28;20481;-75
2024/01/28 10:00:59;;;;;;;0.50;0.10;;;4.90;79.40;;;;;;5075451;28;20461;-75
2024/01/28 10:03:27;;;;;;;0.50;0.10;;;4.90;76.50;;;;;;5081242;28;20441;-75
2024/01/28 10:05:55;;;;;;;0.50;0.10;;;4.90;71.40;;;;;;5072400;28;20863;-75
2024/01/28 10:08:27;;;;;;;0.50;0.10;;;4.90;67.80;;;;;;5079086;28;20687;-76
2024/01/28 10:10:56;;;;;;;0.50;0.10;;;5.00;66.40;;;;;;5074502;28;20880;-75
2024/01/28 10:13:24;;;;;;;0.50;0.10;;;5.10;65.40;;;;;;5089308;28;20435;-74
2024/01/28 10:15:56;;;;;;;0.50;0.10;;;5.10;62.10;;;;;;5076161;28;20530;-75
2024/01/28 10:18:24;;;;;;;0.50;0.10;;;5.10;59.20;;;;;;5075486;28;20981;-75
2024/01/28 10:20:53;;;;;;;0.50;0.10;;;5.20;60.10;;;;;;5073944;28;20452;-73
2024/01/28 10:23:21;;;;;;;0.50;0.20;;;5.20;57.60;;;;;;5072706;28;20559;-74
2024/01/28 10:25:48;;;;;;;0.50;0.10;;;5.30;57.10;;;;;;5081235;28;20489;-75
2024/01/28 10:28:18;;;;;;;0.50;0.10;;;5.30;57.60;;;;;;5075414;28;20517;-75
2024/01/28 10:30:49;;;;;;;0.50;0.10;;;5.40;54.50;;;;;;5081134;28;20537;-74
2024/01/28 10:33:17;;;;;;;0.50;0.10;;;5.40;53.50;;;;;;5081389;28;20487;-75
2024/01/28 10:35:46;;;;;;;0.50;0.10;;;5.40;52.60;;;;;;5093596;28;20446;-76
2024/01/28 10:38:18;;;;;;;0.50;0.10;;;5.40;53.10;;;;;;5072046;28;20464;-73
2024/01/28 10:40:48;;;;;;;0.50;0.10;;;5.50;52.80;;;;;;5071738;28;20532;-74
2024/01/28 10:43:23;;;;;;;0.50;0.10;;;5.60;52.10;;;;;;5071668;28;20565;-74
2024/01/28 10:45:56;;;;;;;0.50;0.10;;;5.60;51.00;;;;;;5074255;28;20910;-72
2024/01/28 10:48:25;;;;;;;0.50;0.10;;;5.60;48.60;;;;;;5071640;28;20519;-76
2024/01/28 10:50:54;;;;;;;0.50;0.10;;;5.60;47.70;;;;;;5071194;28;20442;-77
2024/01/28 10:53:24;;;;;;;0.50;0.10;;;5.00;47.30;;;;;;5080477;28;20535;-75
2024/01/28 10:55:53;;;;;;;4.20;4.00;;;;;;;;;;5076047;28;20465;-77
2024/01/28 10:58:22;;;;;;;0.50;0.10;;;5.70;48.40;;;;;;5074158;28;20484;-75
2024/01/28 11:00:50;;;;;;;0.50;0.10;;;5.70;49.20;;;;;;5090093;28;20522;-75
2024/01/28 11:03:19;;;;;;;0.50;0.10;;;5.80;48.40;;;;;;5078935;28;20483;-75
2024/01/28 11:05:48;;;;;;;0.50;0.10;;;5.80;48.70;;;;;;5070286;28;20508;-75
2024/01/28 11:08:16;;;;;;;0.50;0.10;;;5.80;49.50;;;;;;5086154;28;21027;-75
2024/01/28 11:10:44;;;;;;;0.50;0.10;;;5.90;65.70;;;;;;5079527;28;20801;-75
2024/01/28 11:13:12;;;;;;;0.50;0.10;;;6.00;60.00;;;;;;5084787;28;20436;-77
2024/01/28 11:15:43;;;;;;;0.50;0.10;;;6.10;55.70;;;;;;5083597;28;20452;-78
2024/01/28 11:18:13;;;;;;;0.50;0.10;;;;;;;;;;5085661;28;20496;-77
2024/01/28 11:20:42;;;;;;;0.50;0.10;;;6.20;50.30;;;;;;5074664;28;20495;-75
2024/01/28 11:23:16;;;;;;;0.50;0.10;;;6.20;48.10;;;;;;5078879;28;21019;-74
2024/01/28 11:25:46;;;;;;;0.50;0.10;;;6.20;48.80;;;;;;5079492;28;20442;-77
2024/01/28 11:28:15;;;;;;;0.50;0.10;;;6.20;48.20;;;;;;5075748;28;20461;-77
2024/01/28 11:30:52;;;;;;;0.50;0.10;;;6.20;47.00;;;;;;5078565;28;20458;-78
2024/01/28 11:33:20;;;;;;;0.50;0.20;;;6.20;46.90;;;;;;5083377;28;20510;-77
2024/01/28 11:35:48;;;;;;;0.50;0.10;;;6.30;48.30;;;;;;5074029;28;20513;-75
2024/01/28 11:38:21;;;;;;;0.50;0.10;;;6.40;48.40;;;;;;5072213;28;20506;-77
2024/01/28 11:40:56;;;;;;;0.70;0.67;;;6.40;47.00;;;;;;5075846;28;20494;-75
2024/01/28 11:43:24;;;;;;;0.50;0.10;;;6.40;45.60;;;;;;5083244;28;20485;-76
2024/01/28 11:45:54;;;;;;;0.50;0.10;;;;;;;;;;5089890;28;20532;-76
2024/01/28 11:48:22;;;;;;;0.50;0.10;;;6.60;45.50;;;;;;5074397;28;20507;-75
2024/01/28 11:50:50;;;;;;;0.50;0.10;;;6.70;45.10;;;;;;5075643;28;20460;-75
2024/01/28 11:53:18;;;;;;;0.50;0.10;;;6.80;44.40;;;;;;5074890;28;20434;-75
2024/01/28 11:55:46;;;;;;;0.50;0.20;;;6.80;43.40;;;;;;5076948;28;20448;-77
2024/01/28 11:58:16;;;;;;;0.50;0.10;;;6.90;42.70;;;;;;5080847;28;20480;-76
2024/01/28 12:00:44;;;;;;;0.50;0.10;;;;;;;;;;5083031;28;20465;-76
2024/01/28 12:03:14;;;;;;;0.50;0.10;;;6.90;41.20;;;;;;5079848;28;20918;-76
2024/01/28 12:05:42;;;;;;;0.50;0.10;;;7.00;42.80;;;;;;5077025;28;20609;-77
2024/01/28 12:08:09;;;;;;;0.50;0.10;;;7.00;42.70;;;;;;5077289;28;20477;-76
2024/01/28 12:10:38;;;;;;;0.50;0.10;;;;;;;;;;5076501;28;20454;-76
2024/01/28 12:13:06;;;;;;;0.50;0.10;;;7.10;41.40;;;;;;5074412;28;20454;-75
2024/01/28 12:15:34;;;;;;;0.50;0.10;;;7.20;42.00;;;;;;5076031;28;20506;-76
2024/01/28 12:18:02;;;;;;;1.47;1.27;;;8.70;42.80;;;;;;5074725;28;20507;-76
2024/01/28 12:20:32;;;;;;;0.50;0.10;;;7.30;40.00;;;;;;5075392;28;20465;-75
2024/01/28 12:23:00;;;;;;;0.50;0.10;;;7.40;39.30;;;;;;5083462;28;20487;-76
2024/01/28 12:25:28;;;;;;;0.50;0.10;;;7.40;38.60;;;;;;5082619;28;20450;-75
2024/01/28 12:27:55;;;;;;;0.50;0.10;;;7.50;38.70;;;;;;5083939;28;20510;-75
2024/01/28 12:30:24;;;;;;;0.50;0.10;;;7.50;37.60;;;;;;5080398;28;20444;-75
2024/01/28 12:32:53;;;;;;;0.50;0.10;;;7.50;36.80;;;;;;5073658;28;20456;-76
2024/01/28 12:35:21;;;;;;;0.50;0.10;;;7.60;36.30;;;;;;5079598;28;20450;-76
2024/01/28 12:37:50;;;;;;;0.50;0.10;;;;;;;;;;5080536;28;20475;-77
2024/01/28 12:40:18;;;;;;;0.50;0.10;;;7.70;33.60;;;;;;5078146;28;20502;-76
2024/01/28 12:42:46;;;;;;;0.50;0.10;;;7.80;33.00;;;;;;5074635;28;20517;-76
2024/01/28 12:45:14;;;;;;;0.50;0.10;;;7.80;32.50;;;;;;5078900;28;20541;-76
2024/01/28 12:47:42;;;;;;;0.50;0.10;;;7.90;32.90;;;;;;5081793;28;20838;-75
2024/01/28 12:50:11;;;;;;;6.00;5.70;;;7.90;31.70;;;;;;5080765;28;20777;-76
2024/01/28 12:52:39;;;;;;;0.50;0.10;;;8.00;31.30;;;;;;5073185;28;20496;-75
2024/01/28 12:55:10;;;;;;;0.50;0.10;;;8.00;29.90;;;;;;5080991;28;20948;-77
2024/01/28 12:57:38;;;;;;;0.50;0.10;;;8.10;29.20;;;;;;5073635;28;20511;-76
2024/01/28 13:00:10;;;;;;;0.50;0.10;;;8.20;27.00;;;;;;5079008;28;20447;-77
2024/01/28 13:02:39;;;;;;;0.50;0.10;;;8.20;27.10;;;;;;5077534;28;20470;-76
2024/01/28 13:05:10;;;;;;;1.13;1.13;;;8.30;27.60;;;;;;5072942;28;20547;-76
2024/01/28 13:07:39;;;;;;;0.50;0.10;;;8.40;27.30;;;;;;5075851;28;20543;-75